createdAt,value
2023-03-06T00:00:10.362Z,6.54
2023-03-06T00:01:10.386Z,6.64
2023-03-06T00:02:10.412Z,6.59
2023-03-06T00:03:10.463Z,6.41
2023-03-06T00:04:10.635Z,6.35
2023-03-06T00:05:10.538Z,6.24
2023-03-06T00:06:10.672Z,6.20
2023-03-06T00:07:10.611Z,6.18
2023-03-06T00:08:10.644Z,6.24
2023-03-06T00:09:10.708Z,6.24
2023-03-06T00:10:10.750Z,6.20
2023-03-06T00:11:10.769Z,5.99
2023-03-06T00:12:10.802Z,5.93
2023-03-06T00:13:10.843Z,5.88
2023-03-06T00:14:10.873Z,5.91
2023-03-06T00:15:10.909Z,6.09
2023-03-06T00:16:10.974Z,6.15
2023-03-06T00:17:10.997Z,6.07
2023-03-06T00:18:11.018Z,5.96
2023-03-06T00:19:11.055Z,6.13
2023-03-06T00:20:11.101Z,6.04
2023-03-06T00:21:11.141Z,6.03
2023-03-06T00:22:11.157Z,6.21
2023-03-06T00:23:11.167Z,6.00
2023-03-06T00:24:11.228Z,6.11
2023-03-06T00:25:11.234Z,6.19
2023-03-06T00:26:11.270Z,6.10
2023-03-06T00:27:11.331Z,5.92
2023-03-06T00:28:11.371Z,5.88
2023-03-06T00:29:11.390Z,5.82
2023-03-06T00:31:11.461Z,6.02
2023-03-06T00:32:11.542Z,6.13
2023-03-06T00:34:30.306Z,0.50
2023-03-06T00:35:30.322Z,0.50
2023-03-06T00:36:30.273Z,0.50
2023-03-06T00:37:30.266Z,0.50
2023-03-06T00:38:30.228Z,0.50
2023-03-06T00:39:30.216Z,0.51
2023-03-06T00:40:30.221Z,0.52
2023-03-06T00:41:30.214Z,0.53
2023-03-06T00:42:30.197Z,0.50
2023-03-06T00:43:30.192Z,0.51
2023-03-06T00:44:30.174Z,0.51
2023-03-06T00:45:30.285Z,0.51
2023-03-06T00:46:30.113Z,0.52
2023-03-06T00:47:30.128Z,0.51
2023-03-06T00:48:30.135Z,0.52
2023-03-06T00:49:30.100Z,0.53
2023-03-06T00:50:30.109Z,0.54
2023-03-06T00:51:30.080Z,0.52
2023-03-06T00:52:30.095Z,0.50
2023-03-06T00:53:30.062Z,0.50
2023-03-06T00:54:30.064Z,0.51
2023-03-06T00:55:30.050Z,0.52
2023-03-06T00:56:30.032Z,0.53
2023-03-06T00:57:30.015Z,0.52
2023-03-06T00:58:30.018Z,0.53
2023-03-06T00:59:30.010Z,0.53
2023-03-06T01:00:29.986Z,0.53
2023-03-06T01:01:29.977Z,0.50
2023-03-06T01:02:30.032Z,0.51
2023-03-06T01:03:29.888Z,0.51
2023-03-06T01:04:29.937Z,0.50
2023-03-06T01:05:29.906Z,0.54
2023-03-06T01:06:29.872Z,0.53
2023-03-06T01:07:29.820Z,0.54
2023-03-06T01:08:29.829Z,0.54
2023-03-06T01:16:29.754Z,0.52
2023-03-06T01:17:29.778Z,0.52
2023-03-06T01:18:29.695Z,0.53
2023-03-06T01:19:29.697Z,0.53
2023-03-06T01:20:29.696Z,0.52
2023-03-06T01:21:29.658Z,0.52
2023-03-06T01:22:29.664Z,0.52
2023-03-06T01:23:29.633Z,0.52
2023-03-06T01:24:29.700Z,0.51
2023-03-06T01:25:29.711Z,0.52
2023-03-06T01:26:29.730Z,0.52
2023-03-06T01:27:29.767Z,0.50
2023-03-06T01:28:29.798Z,0.50
2023-03-06T01:29:29.832Z,0.51
2023-03-06T01:42:32.078Z,0.51
2023-03-06T01:49:30.469Z,0.50
2023-03-06T01:51:30.556Z,0.50
2023-03-06T01:54:30.662Z,0.50
2023-03-06T02:15:31.336Z,0.61
2023-03-06T02:16:31.400Z,0.62
2023-03-06T02:24:31.586Z,0.66
2023-03-06T02:25:31.612Z,0.66
2023-03-06T02:26:31.652Z,0.64
2023-03-06T02:27:31.663Z,0.66
2023-03-06T02:28:31.669Z,0.70
2023-03-06T02:29:31.656Z,0.69
2023-03-06T02:30:31.677Z,0.66
2023-03-06T02:31:31.650Z,0.69
2023-03-06T02:32:31.719Z,0.69
2023-03-06T02:33:31.734Z,0.72
2023-03-06T02:34:31.702Z,0.73
2023-03-06T02:35:31.729Z,0.74
2023-03-06T02:36:31.726Z,0.75
2023-03-06T02:37:31.686Z,0.76
2023-03-06T02:38:31.715Z,0.78
2023-03-06T02:39:31.722Z,0.74
2023-03-06T02:40:31.712Z,0.76
2023-03-06T02:41:31.703Z,0.76
2023-03-06T02:42:31.694Z,0.78
2023-03-06T02:43:31.742Z,0.74
2023-03-06T02:44:31.716Z,0.73
2023-03-06T02:45:31.719Z,0.74
2023-03-06T02:46:31.757Z,0.75
2023-03-06T02:47:31.707Z,0.74
2023-03-06T02:48:31.697Z,0.73
2023-03-06T02:49:31.672Z,0.73
2023-03-06T02:50:31.774Z,0.74
2023-03-06T02:51:31.676Z,0.73
2023-03-06T02:52:31.659Z,0.73
2023-03-06T02:53:31.689Z,0.72
2023-03-06T02:54:31.664Z,0.73
2023-03-06T02:55:31.713Z,0.73
2023-03-06T02:56:31.723Z,0.73
2023-03-06T02:57:31.724Z,0.70
2023-03-06T02:58:31.763Z,0.62
2023-03-06T02:59:31.745Z,0.60
2023-03-06T03:00:31.812Z,0.48
2023-03-06T03:01:31.871Z,0.50
2023-03-06T03:02:31.826Z,0.49
2023-03-06T03:03:31.877Z,0.52
2023-03-06T03:04:31.894Z,0.50
2023-03-06T03:05:31.874Z,0.52
2023-03-06T03:06:31.872Z,0.55
2023-03-06T03:07:31.862Z,0.58
2023-03-06T03:08:31.880Z,0.56
2023-03-06T03:09:31.870Z,0.51
2023-03-06T03:10:31.867Z,0.50
2023-03-06T03:11:31.846Z,0.53
2023-03-06T03:12:31.839Z,0.54
2023-03-06T03:13:31.847Z,0.57
2023-03-06T03:14:31.856Z,0.57
2023-03-06T03:15:31.859Z,0.60
2023-03-06T03:16:31.854Z,0.67
2023-03-06T03:17:31.867Z,0.66
2023-03-06T03:18:31.844Z,0.69
2023-03-06T03:19:31.858Z,0.74
2023-03-06T03:20:31.898Z,0.74
2023-03-06T03:21:31.881Z,0.78
2023-03-06T03:22:31.891Z,0.88
2023-03-06T03:23:31.900Z,0.94
2023-03-06T03:24:31.954Z,0.98
2023-03-06T03:25:31.931Z,0.99
2023-03-06T03:26:31.920Z,0.97
2023-03-06T03:27:31.927Z,0.95
2023-03-06T03:28:31.913Z,0.94
2023-03-06T03:29:31.902Z,0.97
2023-03-06T03:30:31.908Z,0.95
2023-03-06T03:31:31.975Z,0.93
2023-03-06T03:32:31.955Z,0.98
2023-03-06T03:33:31.937Z,0.93
2023-03-06T03:34:31.922Z,0.96
2023-03-06T03:35:31.985Z,0.95
2023-03-06T03:36:31.949Z,0.96
2023-03-06T03:37:31.976Z,0.92
2023-03-06T03:38:32.011Z,0.89
2023-03-06T03:39:32.033Z,0.87
2023-03-06T03:40:31.999Z,0.85
2023-03-06T03:41:32.034Z,0.84
2023-03-06T03:42:32.045Z,0.81
2023-03-06T03:43:32.064Z,0.85
2023-03-06T03:44:32.040Z,0.90
2023-03-06T03:45:32.077Z,0.93
2023-03-06T03:46:32.168Z,0.95
2023-03-06T03:47:32.086Z,0.95
2023-03-06T03:48:32.089Z,0.95
2023-03-06T03:49:32.127Z,0.96
2023-03-06T03:50:32.093Z,0.94
2023-03-06T03:51:32.095Z,0.95
2023-03-06T03:52:32.126Z,0.93
2023-03-06T03:53:32.122Z,0.95
2023-03-06T03:54:32.069Z,0.99
2023-03-06T03:55:32.089Z,1.04
2023-03-06T03:56:32.080Z,1.09
2023-03-06T03:57:32.083Z,1.06
2023-03-06T03:58:32.080Z,0.97
2023-03-06T03:59:32.076Z,1.00
2023-03-06T04:00:32.076Z,0.88
2023-03-06T04:01:32.080Z,0.86
2023-03-06T04:02:32.052Z,0.84
2023-03-06T04:03:32.044Z,0.77
2023-03-06T04:04:32.131Z,0.81
2023-03-06T04:05:32.048Z,0.80
2023-03-06T04:06:32.045Z,0.79
2023-03-06T04:07:32.035Z,0.80
2023-03-06T04:08:32.069Z,0.79
2023-03-06T04:09:32.077Z,0.77
2023-03-06T04:10:32.081Z,0.77
2023-03-06T04:11:32.126Z,0.71
2023-03-06T04:12:32.059Z,0.72
2023-03-06T04:13:32.062Z,0.72
2023-03-06T04:14:32.069Z,0.71
2023-03-06T04:15:32.083Z,0.71
2023-03-06T04:16:32.095Z,0.69
2023-03-06T04:17:32.087Z,0.70
2023-03-06T04:18:32.101Z,0.69
2023-03-06T04:19:32.107Z,0.70
2023-03-06T04:20:32.112Z,0.72
2023-03-06T04:21:32.081Z,0.74
2023-03-06T04:22:32.132Z,0.79
2023-03-06T04:23:32.141Z,0.82
2023-03-06T04:24:32.117Z,0.87
2023-03-06T04:25:32.161Z,0.95
2023-03-06T04:26:32.223Z,0.99
2023-03-06T04:27:32.107Z,0.99
2023-03-06T04:28:32.109Z,0.91
2023-03-06T04:29:32.200Z,0.84
2023-03-06T04:30:32.075Z,0.85
2023-03-06T04:31:32.142Z,0.86
2023-03-06T04:32:32.118Z,0.78
2023-03-06T04:33:32.098Z,0.78
2023-03-06T04:34:32.127Z,0.73
2023-03-06T04:35:32.151Z,0.77
2023-03-06T04:36:32.091Z,0.77
2023-03-06T04:37:32.090Z,0.80
2023-03-06T04:38:32.117Z,0.83
2023-03-06T04:39:32.083Z,0.87
2023-03-06T04:40:32.112Z,0.88
2023-03-06T04:41:32.132Z,0.88
2023-03-06T04:42:32.106Z,0.82
2023-03-06T04:43:32.133Z,0.84
2023-03-06T04:44:32.096Z,0.76
2023-03-06T04:45:32.135Z,0.76
2023-03-06T04:46:32.136Z,0.73
2023-03-06T04:47:32.146Z,0.76
2023-03-06T04:48:32.138Z,0.73
2023-03-06T04:49:32.141Z,0.79
2023-03-06T04:50:32.112Z,0.80
2023-03-06T04:51:32.123Z,0.82
2023-03-06T04:52:32.122Z,0.84
2023-03-06T04:53:32.140Z,0.89
2023-03-06T04:54:32.155Z,0.92
2023-03-06T04:55:32.133Z,0.90
2023-03-06T04:56:32.118Z,0.87
2023-03-06T04:57:32.137Z,0.75
2023-03-06T04:58:32.166Z,0.80
2023-03-06T05:00:32.158Z,0.81
2023-03-06T05:01:32.179Z,0.79
2023-03-06T05:02:32.219Z,0.81
2023-03-06T05:03:32.188Z,0.83
2023-03-06T05:04:32.201Z,0.83
2023-03-06T05:05:32.212Z,0.87
2023-03-06T05:08:32.199Z,0.91
2023-03-06T05:09:32.214Z,0.96
2023-03-06T05:10:32.226Z,0.96
2023-03-06T05:11:32.229Z,0.91
2023-03-06T05:12:32.233Z,0.96
2023-03-06T05:14:32.243Z,0.97
2023-03-06T05:15:32.238Z,0.96
2023-03-06T05:16:32.237Z,0.92
2023-03-06T05:17:32.230Z,0.94
2023-03-06T05:18:32.208Z,0.93
2023-03-06T05:19:32.200Z,0.90
2023-03-06T05:20:32.222Z,0.86
2023-03-06T05:21:32.253Z,0.83
2023-03-06T05:22:32.268Z,0.78
2023-03-06T05:23:32.230Z,0.72
2023-03-06T05:24:32.281Z,0.71
2023-03-06T05:25:32.306Z,0.72
2023-03-06T05:26:32.293Z,0.69
2023-03-06T05:27:32.332Z,0.74
2023-03-06T05:28:32.375Z,0.74
2023-03-06T05:29:32.384Z,0.76
2023-03-06T05:30:32.579Z,0.80
2023-03-06T05:31:32.488Z,0.84
2023-03-06T05:32:35.378Z,0.85
2023-03-06T05:33:32.546Z,0.84
2023-03-06T05:34:32.506Z,0.84
2023-03-06T05:35:32.548Z,0.86
2023-03-06T05:36:32.470Z,0.84
2023-03-06T05:37:32.514Z,0.85
2023-03-06T05:38:32.488Z,0.87
2023-03-06T05:39:32.457Z,0.90
2023-03-06T05:40:32.467Z,0.90
2023-03-06T05:41:32.436Z,0.92
2023-03-06T05:42:32.446Z,0.94
2023-03-06T05:43:32.418Z,0.95
2023-03-06T05:44:32.422Z,0.96
2023-03-06T05:45:32.454Z,1.00
2023-03-06T05:46:32.357Z,1.04
2023-03-06T05:47:32.375Z,1.09
2023-03-06T05:48:32.344Z,1.10
2023-03-06T05:49:32.304Z,1.12
2023-03-06T05:50:32.321Z,1.14
2023-03-06T05:51:32.312Z,1.18
2023-03-06T05:52:32.308Z,1.19
2023-03-06T05:54:32.256Z,1.27
2023-03-06T05:55:32.261Z,1.27
2023-03-06T05:56:32.227Z,1.27
2023-03-06T05:57:32.197Z,1.28
2023-03-06T05:58:32.192Z,1.28
2023-03-06T05:59:32.186Z,1.32
2023-03-06T06:00:32.155Z,1.36
2023-03-06T06:01:39.145Z,1.39
2023-03-06T06:02:32.157Z,1.39
2023-03-06T06:03:32.179Z,1.40
2023-03-06T06:04:32.126Z,1.41
2023-03-06T06:05:32.128Z,1.43
2023-03-06T06:06:32.083Z,1.34
2023-03-06T06:07:32.072Z,1.33
2023-03-06T06:08:32.087Z,1.31
2023-03-06T06:09:32.150Z,1.32
2023-03-06T06:10:33.066Z,1.33
2023-03-06T06:11:32.012Z,1.33
2023-03-06T06:12:32.085Z,1.35
2023-03-06T06:13:32.068Z,1.38
2023-03-06T06:14:31.952Z,1.44
2023-03-06T06:15:32.022Z,1.45
2023-03-06T06:16:31.981Z,1.49
2023-03-06T06:17:31.978Z,1.51
2023-03-06T06:18:31.886Z,1.46
2023-03-06T06:19:31.842Z,1.47
2023-03-06T06:20:31.872Z,1.50
2023-03-06T06:21:31.806Z,1.51
2023-03-06T06:22:31.778Z,1.53
2023-03-06T06:23:31.761Z,1.60
2023-03-06T06:24:31.726Z,1.60
2023-03-06T06:25:31.751Z,1.63
2023-03-06T06:26:31.784Z,1.65
2023-03-06T06:27:31.777Z,1.68
2023-03-06T06:28:31.780Z,1.71
2023-03-06T06:29:31.802Z,1.82
2023-03-06T06:30:31.810Z,1.80
2023-03-06T06:31:31.877Z,1.82
2023-03-06T06:32:31.866Z,2.17
2023-03-06T06:33:31.832Z,2.99
2023-03-06T06:34:31.794Z,2.70
2023-03-06T06:35:31.847Z,2.58
2023-03-06T06:36:31.806Z,2.41
2023-03-06T06:37:31.822Z,2.29
2023-03-06T06:38:31.800Z,2.25
2023-03-06T06:39:31.823Z,2.33
2023-03-06T06:40:31.794Z,2.35
2023-03-06T06:41:46.573Z,2.35
2023-03-06T06:42:39.004Z,2.36
2023-03-06T06:43:32.718Z,2.36
2023-03-06T06:44:31.728Z,2.44
2023-03-06T06:45:31.706Z,2.57
2023-03-06T06:47:20.888Z,2.68
2023-03-06T06:47:32.713Z,2.37
2023-03-06T06:48:31.640Z,2.48
2023-03-06T06:49:31.614Z,2.67
2023-03-06T06:50:31.603Z,3.05
2023-03-06T06:51:31.563Z,3.39
2023-03-06T06:52:31.549Z,3.57
2023-03-06T06:53:31.508Z,3.20
2023-03-06T06:54:31.443Z,3.58
2023-03-06T06:55:31.427Z,2.57
2023-03-06T06:56:31.382Z,2.35
2023-03-06T06:57:31.364Z,2.97
2023-03-06T06:58:31.322Z,3.22
2023-03-06T06:59:32.105Z,3.47
2023-03-06T07:00:31.265Z,2.25
2023-03-06T07:01:31.303Z,2.32
2023-03-06T07:02:31.202Z,2.06
2023-03-06T07:03:31.192Z,2.63
2023-03-06T07:04:31.134Z,3.12
2023-03-06T07:05:31.138Z,3.29
2023-03-06T07:06:31.135Z,3.17
2023-03-06T07:07:31.071Z,3.40
2023-03-06T07:08:31.026Z,3.43
2023-03-06T07:09:31.030Z,3.40
2023-03-06T07:10:30.954Z,3.72
2023-03-06T07:11:31.150Z,3.95
2023-03-06T07:12:30.906Z,4.14
2023-03-06T07:13:30.879Z,4.12
2023-03-06T07:14:30.836Z,4.53
2023-03-06T07:15:30.768Z,4.69
2023-03-06T07:16:30.747Z,4.86
2023-03-06T07:17:30.724Z,4.85
2023-03-06T07:18:30.683Z,5.17
2023-03-06T07:19:30.623Z,5.42
2023-03-06T07:20:30.613Z,5.61
2023-03-06T07:21:30.617Z,5.80
2023-03-06T07:22:38.727Z,6.01
2023-03-06T07:23:31.501Z,6.03
2023-03-06T07:24:30.506Z,6.12
2023-03-06T07:25:30.476Z,6.31
2023-03-06T07:26:32.088Z,6.70
2023-03-06T07:27:30.424Z,7.50
2023-03-06T07:28:33.694Z,7.59
2023-03-06T07:29:31.296Z,7.61
2023-03-06T07:30:30.264Z,7.72
2023-03-06T07:31:30.298Z,7.90
2023-03-06T07:32:30.262Z,8.42
2023-03-06T07:33:30.114Z,9.20
2023-03-06T07:34:30.075Z,9.23
2023-03-06T07:35:30.108Z,9.59
2023-03-06T07:36:30.019Z,9.63
2023-03-06T07:37:30.039Z,9.96
2023-03-06T07:38:29.955Z,9.92
2023-03-06T07:39:30.070Z,10.04
2023-03-06T07:40:29.857Z,9.57
2023-03-06T07:41:30.241Z,9.84
2023-03-06T07:42:29.787Z,9.75
2023-03-06T07:43:29.766Z,9.39
2023-03-06T07:44:29.709Z,9.22
2023-03-06T07:45:29.621Z,9.09
2023-03-06T07:46:29.655Z,8.70
2023-03-06T07:47:29.702Z,8.18
2023-03-06T07:48:29.543Z,8.19
2023-03-06T07:49:29.559Z,8.46
2023-03-06T07:50:30.159Z,8.74
2023-03-06T07:51:29.423Z,9.08
2023-03-06T07:52:29.690Z,9.52
2023-03-06T07:53:29.430Z,9.06
2023-03-06T07:54:29.367Z,9.51
2023-03-06T07:55:29.335Z,9.35
2023-03-06T07:56:29.392Z,8.92
2023-03-06T07:57:29.674Z,9.23
2023-03-06T07:58:29.326Z,9.16
2023-03-06T07:59:29.271Z,9.04
2023-03-06T08:00:29.239Z,9.09
2023-03-06T08:01:29.253Z,9.24
2023-03-06T08:02:29.186Z,8.78
2023-03-06T08:03:29.207Z,9.10
2023-03-06T08:04:30.233Z,8.91
2023-03-06T08:05:29.121Z,8.91
2023-03-06T08:06:29.124Z,9.11
2023-03-06T08:07:29.199Z,9.07
2023-03-06T08:08:29.029Z,9.08
2023-03-06T08:09:29.024Z,8.66
2023-03-06T08:10:28.963Z,8.48
2023-03-06T08:11:28.920Z,8.95
2023-03-06T08:12:29.238Z,8.97
2023-03-06T08:13:28.831Z,8.64
2023-03-06T08:14:28.811Z,9.18
2023-03-06T08:15:28.758Z,9.00
2023-03-06T08:16:28.726Z,9.16
2023-03-06T08:17:28.668Z,8.58
2023-03-06T08:18:28.657Z,8.55
2023-03-06T08:19:28.563Z,8.05
2023-03-06T08:20:28.491Z,8.04
2023-03-06T08:21:29.045Z,8.36
2023-03-06T08:22:29.405Z,8.55
2023-03-06T08:23:28.380Z,8.75
2023-03-06T08:24:28.354Z,8.57
2023-03-06T08:25:28.338Z,8.53
2023-03-06T08:26:28.368Z,8.39
2023-03-06T08:27:29.215Z,8.40
2023-03-06T08:28:28.248Z,8.40
2023-03-06T08:29:28.114Z,8.24
2023-03-06T08:30:28.086Z,8.44
2023-03-06T08:31:28.076Z,7.28
2023-03-06T08:32:28.276Z,7.11
2023-03-06T08:33:27.967Z,7.13
2023-03-06T08:34:27.937Z,6.55
2023-03-06T08:35:27.983Z,6.48
2023-03-06T08:37:28.231Z,6.24
2023-03-06T08:38:27.733Z,7.13
2023-03-06T08:39:27.718Z,7.43
2023-03-06T08:40:27.706Z,7.48
2023-03-06T08:41:27.694Z,7.55
2023-03-06T08:42:27.718Z,7.48
2023-03-06T08:43:27.590Z,7.00
2023-03-06T08:44:27.570Z,4.10
2023-03-06T08:45:27.556Z,3.70
2023-03-06T08:46:27.616Z,3.77
2023-03-06T08:47:27.736Z,3.93
2023-03-06T08:48:27.552Z,5.02
2023-03-06T08:49:27.548Z,4.82
2023-03-06T08:50:27.585Z,4.37
2023-03-06T08:51:27.584Z,4.25
2023-03-06T08:52:27.610Z,3.86
2023-03-06T08:53:41.630Z,3.90
2023-03-06T08:54:28.549Z,3.91
2023-03-06T09:01:28.269Z,3.28
2023-03-06T09:03:27.216Z,3.19
2023-03-06T09:04:27.200Z,3.18
2023-03-06T09:05:27.175Z,3.22
2023-03-06T09:06:27.121Z,3.34
2023-03-06T09:07:27.051Z,3.05
2023-03-06T09:08:27.052Z,3.11
2023-03-06T09:09:27.001Z,3.10
2023-03-06T09:10:27.044Z,3.18
2023-03-06T09:11:26.957Z,3.04
2023-03-06T09:12:28.083Z,3.17
2023-03-06T09:13:26.910Z,3.21
2023-03-06T09:14:26.895Z,3.20
2023-03-06T09:15:26.851Z,3.32
2023-03-06T09:16:26.835Z,3.49
2023-03-06T09:17:26.742Z,3.61
2023-03-06T09:18:26.702Z,3.61
2023-03-06T09:19:26.705Z,3.74
2023-03-06T09:20:26.645Z,3.85
2023-03-06T09:21:26.608Z,3.88
2023-03-06T09:22:26.548Z,4.08
2023-03-06T09:23:26.744Z,4.09
2023-03-06T09:24:26.479Z,4.31
2023-03-06T09:25:26.503Z,4.53
2023-03-06T09:26:39.531Z,4.77
2023-03-06T09:27:27.428Z,4.78
2023-03-06T09:28:26.400Z,4.80
2023-03-06T09:35:26.131Z,5.37
2023-03-06T09:36:26.037Z,5.17
2023-03-06T09:37:25.982Z,4.94
2023-03-06T09:38:25.964Z,4.12
2023-03-06T09:39:26.017Z,4.58
2023-03-06T09:40:25.871Z,4.52
2023-03-06T09:41:25.862Z,4.40
2023-03-06T09:42:25.846Z,4.24
2023-03-06T09:43:25.801Z,4.27
2023-03-06T09:44:25.874Z,4.22
2023-03-06T09:45:25.809Z,4.06
2023-03-06T09:46:25.796Z,3.92
2023-03-06T09:47:25.783Z,3.81
2023-03-06T09:48:25.699Z,3.49
2023-03-06T09:49:25.712Z,3.30
2023-03-06T09:50:25.686Z,2.68
2023-03-06T09:51:25.698Z,2.13
2023-03-06T09:52:25.701Z,1.89
2023-03-06T09:53:25.705Z,1.80
2023-03-06T09:54:25.808Z,1.50
2023-03-06T09:55:25.771Z,1.46
2023-03-06T09:56:25.787Z,1.41
2023-03-06T09:57:25.838Z,0.71
2023-03-06T09:58:25.848Z,0.40
2023-03-06T09:59:25.868Z,0.36
2023-03-06T10:00:25.866Z,0.45
2023-03-06T10:01:25.833Z,0.50
2023-03-06T10:02:25.964Z,0.53
2023-03-06T10:03:25.876Z,0.94
2023-03-06T10:04:25.813Z,0.87
2023-03-06T10:05:25.794Z,1.31
2023-03-06T10:06:25.790Z,1.54
2023-03-06T10:07:25.846Z,1.82
2023-03-06T10:08:25.927Z,2.32
2023-03-06T10:09:25.879Z,2.70
2023-03-06T10:10:25.932Z,2.82
2023-03-06T10:11:25.936Z,2.96
2023-03-06T10:12:25.956Z,3.11
2023-03-06T10:13:25.979Z,3.24
2023-03-06T10:14:25.985Z,2.98
2023-03-06T10:15:26.074Z,3.03
2023-03-06T10:16:26.016Z,3.35
2023-03-06T10:17:26.033Z,3.47
2023-03-06T10:18:26.817Z,3.26
2023-03-06T10:19:25.996Z,3.35
2023-03-06T10:20:25.998Z,3.56
2023-03-06T10:21:26.065Z,3.69
2023-03-06T10:22:25.943Z,3.52
2023-03-06T10:23:25.970Z,3.65
2023-03-06T10:24:25.919Z,3.88
2023-03-06T10:25:25.878Z,4.01
2023-03-06T10:26:25.884Z,3.94
2023-03-06T10:27:25.811Z,4.24
2023-03-06T10:28:25.781Z,4.42
2023-03-06T10:29:25.794Z,4.43
2023-03-06T10:30:26.491Z,4.45
2023-03-06T10:32:25.827Z,4.83
2023-03-06T10:33:25.780Z,5.16
2023-03-06T10:34:25.791Z,5.11
2023-03-06T10:35:25.851Z,5.38
2023-03-06T10:47:26.706Z,5.29
2023-03-06T10:48:25.879Z,2.51
2023-03-06T10:49:26.328Z,1.05
2023-03-06T10:50:25.860Z,0.48
2023-03-06T10:51:25.861Z,0.34
2023-03-06T10:52:25.829Z,0.34
2023-03-06T10:53:25.819Z,0.34
2023-03-06T10:54:26.278Z,0.34
2023-03-06T10:55:25.824Z,0.34
2023-03-06T10:56:25.880Z,0.34
2023-03-06T10:57:25.970Z,0.34
2023-03-06T10:58:25.956Z,0.53
2023-03-06T10:59:25.989Z,0.58
2023-03-06T11:00:26.014Z,0.94
2023-03-06T11:01:26.027Z,1.13
2023-03-06T11:02:26.090Z,1.42
2023-03-06T11:03:26.097Z,2.15
2023-03-06T11:04:26.134Z,2.99
2023-03-06T11:05:26.147Z,3.83
2023-03-06T11:06:26.156Z,4.48
2023-03-06T11:07:26.197Z,5.27
2023-03-06T11:08:26.173Z,5.43
2023-03-06T11:09:26.218Z,6.12
2023-03-06T11:10:26.192Z,6.95
2023-03-06T11:14:27.694Z,8.04
2023-03-06T11:15:26.110Z,8.70
2023-03-06T11:16:26.169Z,8.52
2023-03-06T11:17:26.091Z,9.10
2023-03-06T11:18:26.144Z,9.57
2023-03-06T11:19:26.032Z,9.92
2023-03-06T11:20:26.037Z,10.16
2023-03-06T11:21:25.937Z,10.65
2023-03-06T11:22:25.951Z,3.34
2023-03-06T11:23:25.916Z,1.19
2023-03-06T11:24:25.928Z,0.68
2023-03-06T11:25:25.865Z,0.34
2023-03-06T11:26:25.879Z,0.36
2023-03-06T11:27:25.890Z,0.44
2023-03-06T11:28:28.817Z,0.65
2023-03-06T11:29:25.966Z,1.07
2023-03-06T11:30:25.845Z,1.83
2023-03-06T11:31:25.891Z,2.79
2023-03-06T11:32:25.925Z,3.98
2023-03-06T11:33:25.790Z,5.70
2023-03-06T11:34:25.814Z,7.01
2023-03-06T11:35:25.762Z,9.09
2023-03-06T11:36:25.631Z,10.75
2023-03-06T11:37:25.555Z,12.03
2023-03-06T11:38:25.529Z,12.90
2023-03-06T11:39:25.843Z,12.89
2023-03-06T11:40:25.459Z,14.88
2023-03-06T11:41:25.434Z,18.49
2023-03-06T11:42:25.449Z,20.08
2023-03-06T11:43:25.358Z,20.76
2023-03-06T11:44:25.804Z,21.81
2023-03-06T11:45:25.272Z,24.11
2023-03-06T11:46:25.376Z,24.61
2023-03-06T11:47:25.234Z,26.82
2023-03-06T11:48:25.164Z,25.06
2023-03-06T11:49:25.313Z,19.60
2023-03-06T11:50:25.094Z,18.68
2023-03-06T11:51:24.996Z,19.44
2023-03-06T11:52:24.946Z,21.49
2023-03-06T11:53:24.931Z,24.18
2023-03-06T11:54:24.866Z,25.37
2023-03-06T11:55:24.854Z,26.92
2023-03-06T11:56:24.817Z,28.81
2023-03-06T11:57:24.751Z,28.59
2023-03-06T11:58:24.691Z,30.51
2023-03-06T11:59:24.693Z,30.43
2023-03-06T12:00:24.860Z,15.37
2023-03-06T12:01:24.636Z,1.80
2023-03-06T12:02:24.712Z,0.95
2023-03-06T12:03:24.525Z,0.87
2023-03-06T12:04:24.482Z,1.00
2023-03-06T12:05:24.554Z,0.99
2023-03-06T12:06:24.442Z,1.45
2023-03-06T12:07:24.413Z,2.68
2023-03-06T12:08:24.373Z,4.72
2023-03-06T12:09:24.351Z,9.05
2023-03-06T12:10:24.808Z,13.27
2023-03-06T12:11:24.322Z,15.82
2023-03-06T12:12:24.255Z,16.16
2023-03-06T12:14:24.156Z,16.17
2023-03-06T12:15:24.327Z,16.12
2023-03-06T12:16:24.169Z,17.18
2023-03-06T12:17:24.074Z,18.09
2023-03-06T12:18:24.110Z,18.62
2023-03-06T12:19:23.980Z,17.96
2023-03-06T12:20:24.321Z,18.92
2023-03-06T12:21:23.914Z,20.15
2023-03-06T12:22:23.861Z,21.57
2023-03-06T12:23:23.914Z,22.58
2023-03-06T12:24:23.766Z,22.81
2023-03-06T12:25:23.830Z,21.13
2023-03-06T12:26:23.729Z,21.76
2023-03-06T12:27:23.645Z,21.20
2023-03-06T12:28:23.616Z,23.57
2023-03-06T12:29:23.558Z,20.78
2023-03-06T12:30:23.827Z,19.23
2023-03-06T12:31:23.547Z,18.34
2023-03-06T12:32:23.482Z,21.57
2023-03-06T12:34:23.401Z,17.60
2023-03-06T12:35:23.848Z,20.74
2023-03-06T12:36:23.415Z,21.99
2023-03-06T12:37:23.419Z,19.35
2023-03-06T12:38:23.464Z,19.27
2023-03-06T12:39:23.429Z,17.38
2023-03-06T12:40:23.818Z,15.48
2023-03-06T12:41:23.428Z,13.48
2023-03-06T12:42:23.922Z,13.37
2023-03-06T12:43:23.395Z,13.84
2023-03-06T12:44:23.357Z,15.02
2023-03-06T12:45:23.316Z,14.41
2023-03-06T12:46:23.373Z,15.05
2023-03-06T12:47:23.265Z,15.55
2023-03-06T12:48:23.273Z,16.05
2023-03-06T12:49:31.516Z,15.33
2023-03-06T12:50:24.216Z,13.34
2023-03-06T12:51:23.154Z,13.11
2023-03-06T12:52:29.549Z,13.47
2023-03-06T12:53:24.088Z,12.99
2023-03-06T12:54:23.031Z,11.91
2023-03-06T12:55:25.722Z,11.52
2023-03-06T12:56:22.963Z,10.79
2023-03-06T12:57:22.926Z,10.32
2023-03-06T12:58:22.898Z,11.09
2023-03-06T12:59:22.857Z,10.98
2023-03-06T13:00:22.839Z,9.74
2023-03-06T13:01:22.785Z,9.33
2023-03-06T13:02:22.762Z,9.62
2023-03-06T13:03:22.726Z,10.45
2023-03-06T13:04:22.680Z,7.67
2023-03-06T13:05:22.670Z,6.58
2023-03-06T13:06:22.621Z,6.57
2023-03-06T13:07:22.585Z,7.73
2023-03-06T13:08:22.535Z,7.64
2023-03-06T13:09:22.485Z,8.70
2023-03-06T13:10:22.465Z,9.25
2023-03-06T13:11:22.432Z,9.19
2023-03-06T13:12:22.399Z,8.46
2023-03-06T13:13:22.365Z,8.24
2023-03-06T13:14:22.317Z,6.67
2023-03-06T13:15:22.271Z,7.93
2023-03-06T13:16:22.263Z,7.82
2023-03-06T13:32:21.723Z,9.36
2023-03-06T13:44:21.216Z,3.85
2023-03-06T13:45:21.201Z,2.38
2023-03-06T13:46:21.195Z,1.98
2023-03-06T13:47:21.175Z,1.60
2023-03-06T13:48:41.512Z,1.29
2023-03-06T13:49:22.106Z,1.19
2023-03-06T13:50:21.093Z,1.15
2023-03-06T13:51:21.037Z,1.22
2023-03-06T13:52:21.016Z,1.37
2023-03-06T13:53:20.922Z,1.34
2023-03-06T13:54:20.967Z,2.19
2023-03-06T13:55:20.911Z,3.42
2023-03-06T13:56:20.855Z,8.34
2023-03-06T13:57:20.836Z,7.04
2023-03-06T13:58:20.783Z,8.25
2023-03-06T13:59:20.785Z,7.12
2023-03-06T14:00:20.747Z,5.41
2023-03-06T14:01:20.746Z,5.54
2023-03-06T14:02:20.731Z,5.44
2023-03-06T14:03:20.660Z,5.74
2023-03-06T14:04:20.587Z,4.99
2023-03-06T14:05:20.712Z,7.05
2023-03-06T14:06:20.577Z,7.20
2023-03-06T14:07:20.557Z,6.82
2023-03-06T14:08:20.500Z,6.17
2023-03-06T14:09:20.494Z,6.38
2023-03-06T14:10:20.513Z,5.34
2023-03-06T14:11:20.515Z,5.46
2023-03-06T14:12:20.509Z,6.80
2023-03-06T14:13:20.497Z,6.39
2023-03-06T14:14:20.551Z,5.58
2023-03-06T14:17:20.593Z,4.81
2023-03-06T14:18:20.604Z,5.43
2023-03-06T14:19:20.592Z,4.19
2023-03-06T14:20:20.604Z,4.29
2023-03-06T15:30:21.289Z,2.46
2023-03-06T20:08:28.830Z,0.79
2023-03-06T20:09:28.860Z,0.80
2023-03-06T20:10:28.885Z,0.97
2023-03-06T20:11:28.940Z,1.11
2023-03-06T20:12:28.973Z,1.18
2023-03-06T20:13:29.016Z,1.12
2023-03-06T20:14:29.097Z,0.95
2023-03-06T20:15:29.119Z,0.94
2023-03-06T20:16:29.095Z,0.92
2023-03-06T20:17:29.146Z,0.94
2023-03-06T20:18:29.133Z,0.91
2023-03-06T20:19:29.109Z,0.92
2023-03-06T20:20:29.117Z,0.95
2023-03-06T20:21:29.133Z,0.97
2023-03-06T20:22:29.136Z,0.87
2023-03-06T20:23:29.153Z,0.78
2023-03-06T20:24:29.156Z,0.63
2023-03-06T20:25:29.190Z,0.64
2023-03-06T20:26:29.514Z,0.62
2023-03-06T20:27:29.226Z,0.49
2023-03-06T20:28:29.219Z,0.57
2023-03-06T20:29:29.215Z,0.63
2023-03-06T20:30:37.555Z,0.76
2023-03-06T20:31:30.304Z,0.77
2023-03-06T20:32:29.295Z,0.80
2023-03-06T20:33:29.183Z,0.85
2023-03-06T20:34:29.128Z,0.87
2023-03-06T20:35:29.120Z,0.83
2023-03-06T20:36:29.112Z,0.82
2023-03-06T20:37:29.092Z,0.84
2023-03-06T20:38:29.070Z,0.83
2023-03-06T20:39:29.040Z,0.78
2023-03-06T20:40:29.104Z,0.66
2023-03-06T20:41:28.985Z,0.74
2023-03-06T20:42:28.972Z,0.93
2023-03-06T20:43:28.959Z,0.70
2023-03-06T20:44:28.975Z,0.48
2023-03-06T20:45:28.968Z,0.38
2023-03-06T20:46:29.144Z,0.49
2023-03-06T20:47:28.994Z,0.77
2023-03-06T20:48:28.990Z,0.76
2023-03-06T20:49:28.993Z,0.57
2023-03-06T20:50:28.972Z,0.55
2023-03-06T20:51:28.981Z,0.55
2023-03-06T20:52:28.962Z,0.53
2023-03-06T20:53:28.980Z,0.57
2023-03-06T20:54:28.932Z,0.56
2023-03-06T20:55:28.943Z,0.53
2023-03-06T20:56:28.978Z,0.60
2023-03-06T20:57:28.989Z,0.53
2023-03-06T20:58:28.968Z,0.56
2023-03-06T20:59:28.976Z,0.55
2023-03-06T21:00:28.973Z,0.53
2023-03-06T21:01:29.013Z,0.53
2023-03-06T21:02:28.991Z,0.65